This is the latest recevied weather packets stored in our database for station/object N7WSS. If no packets are shown the sender has not sent any weather packets the latest 10 day(s).
| Time | Temp. | Humidity | Pressure | Rain* | Wind** | Luminosity | Snow |
|---|---|---|---|---|---|---|---|
| 1777609310 | 16.11° C | 65% | 1010.4 hPa | 0 mm | - | - | - |
| 1777609007 | 17.22° C | 63% | 1010 hPa | 0 mm | - | - | - |
| 1777608704 | 18.33° C | 56% | 1009.1 hPa | 0 mm | - | - | - |
| 1777608401 | 18.33° C | 56% | 1009 hPa | 0 mm | - | - | - |
| 1777608099 | 18.33° C | 59% | 1009 hPa | 0 mm | - | - | - |
| 1777607795 | 18.33° C | 62% | 1008.7 hPa | 0 mm | - | - | - |
| 1777607491 | 18.33° C | 60% | 1008.5 hPa | 0 mm | - | - | - |
| 1777607188 | 18.33° C | 61% | 1008.3 hPa | 0 mm | - | - | - |
| 1777606884 | 18.33° C | 62% | 1008.4 hPa | 0 mm | - | - | - |
| 1777606580 | 18.33° C | 64% | 1008.5 hPa | 0 mm | - | - | - |
| 1777606275 | 18.33° C | 65% | 1008.5 hPa | 0 mm | - | - | - |
| 1777605970 | 17.78° C | 66% | 1008.4 hPa | 0 mm | - | - | - |
| 1777605667 | 17.78° C | 68% | 1008.8 hPa | 0 mm | - | - | - |
| 1777605366 | 17.78° C | 69% | 1008.5 hPa | 0 mm | - | - | - |
| 1777605063 | 17.78° C | 70% | 1008.9 hPa | 0 mm | - | - | - |
| 1777604758 | 17.78° C | 70% | 1008.9 hPa | 0 mm | - | - | - |
| 1777604456 | 18.33° C | 67% | 1008.7 hPa | 0 mm | - | - | - |
| 1777604155 | 18.33° C | 60% | 1008.4 hPa | 0 mm | - | - | - |
| 1777603852 | 18.33° C | 58% | 1008.5 hPa | 0 mm | - | - | - |
| 1777603548 | 18.33° C | 61% | 1008.7 hPa | 0 mm | - | - | - |
| 1777603244 | 17.78° C | 62% | 1008.7 hPa | 0 mm | - | - | - |
| 1777602940 | 18.33° C | 62% | 1008.7 hPa | 0 mm | - | - | - |
| 1777602636 | 18.33° C | 62% | 1008.2 hPa | 0 mm | - | - | - |
| 1777602330 | 17.78° C | 63% | 1008.2 hPa | 0 mm | - | - | - |
| 1777602027 | 18.33° C | 60% | 1008.1 hPa | 0 mm | - | - | - |
* Rain latest hour (hover to see other rain measurements)
** Current wind speed in m/s (hover to see current wind gust speed)